createdAt,value
2018-12-23T00:01:45.434Z,10.83
2018-12-23T00:04:15.078Z,12.80
2018-12-23T00:06:44.822Z,15.10
2018-12-23T00:09:14.405Z,16.50
2018-12-23T00:11:43.968Z,12.47
2018-12-23T00:14:14.140Z,12.30
2018-12-23T00:16:43.775Z,12.43
2018-12-23T00:19:13.572Z,11.53
2018-12-23T00:21:43.868Z,10.80
2018-12-23T00:24:13.922Z,12.23
2018-12-23T00:26:43.547Z,11.67
2018-12-23T00:29:13.554Z,12.13
2018-12-23T00:31:43.131Z,14.00
2018-12-23T00:34:12.674Z,10.30
2018-12-23T00:36:43.472Z,11.33
2018-12-23T00:39:14.044Z,14.07
2018-12-23T00:41:43.638Z,11.60
2018-12-23T00:44:13.886Z,11.70
2018-12-23T00:46:43.594Z,10.83
2018-12-23T00:49:13.827Z,12.30
2018-12-23T00:51:49.334Z,12.27
2018-12-23T00:54:26.154Z,10.23
2018-12-23T00:56:56.400Z,13.20
2018-12-23T00:59:27.312Z,11.23
2018-12-23T01:01:56.894Z,11.40
2018-12-23T01:04:26.513Z,11.90
2018-12-23T01:06:56.057Z,10.67
2018-12-23T01:09:25.675Z,11.17
2018-12-23T01:11:55.675Z,12.23
2018-12-23T01:14:25.265Z,11.63
2018-12-23T01:16:54.890Z,11.37
2018-12-23T01:19:24.519Z,11.60
2018-12-23T01:21:54.221Z,13.03
2018-12-23T01:24:23.831Z,11.43
2018-12-23T01:26:53.595Z,13.90
2018-12-23T01:29:23.308Z,12.07
2018-12-23T01:31:52.914Z,10.47
2018-12-23T01:34:22.629Z,12.87
2018-12-23T01:36:52.170Z,11.63
2018-12-23T01:39:21.884Z,11.80
2018-12-23T01:41:52.007Z,12.27
2018-12-23T01:44:21.619Z,12.23
2018-12-23T01:46:51.213Z,12.87
2018-12-23T01:49:20.783Z,11.93
2018-12-23T01:51:50.363Z,14.13
2018-12-23T01:54:19.894Z,12.30
2018-12-23T01:56:49.943Z,11.53
2018-12-23T01:59:19.485Z,10.20
2018-12-23T02:01:49.026Z,10.50
2018-12-23T02:04:18.837Z,12.07
2018-12-23T02:06:48.586Z,11.17
2018-12-23T02:09:18.490Z,11.33
2018-12-23T02:11:48.703Z,10.23
2018-12-23T02:14:18.547Z,11.77
2018-12-23T02:16:48.137Z,13.20
2018-12-23T02:19:18.539Z,10.50
2018-12-23T02:21:48.178Z,10.53
2018-12-23T02:24:18.241Z,10.57
2018-12-23T02:26:48.403Z,11.17
2018-12-23T02:29:18.082Z,13.17
2018-12-23T02:31:47.723Z,11.67
2018-12-23T02:34:17.367Z,15.63
2018-12-23T02:36:46.982Z,14.67
2018-12-23T02:39:16.543Z,15.27
2018-12-23T02:41:46.528Z,12.23
2018-12-23T02:44:16.370Z,12.50
2018-12-23T02:46:46.016Z,12.67
2018-12-23T02:49:15.659Z,14.77
2018-12-23T02:51:45.343Z,13.03
2018-12-23T02:54:14.965Z,12.00
2018-12-23T02:56:44.557Z,13.27
2018-12-23T02:59:14.130Z,15.93
2018-12-23T03:01:43.773Z,12.47
2018-12-23T03:04:13.482Z,14.67
2018-12-23T03:06:43.994Z,15.30
2018-12-23T03:09:13.601Z,14.87
2018-12-23T03:11:43.291Z,16.70
2018-12-23T03:14:12.837Z,18.07
2018-12-23T03:16:42.398Z,21.13
2018-12-23T03:19:12.063Z,21.83
2018-12-23T03:21:43.090Z,21.03
2018-12-23T03:24:12.825Z,22.77
2018-12-23T03:26:42.463Z,22.87
2018-12-23T03:29:12.071Z,28.13
2018-12-23T03:31:41.723Z,26.23
2018-12-23T03:34:11.321Z,25.93
2018-12-23T03:36:41.980Z,27.70
2018-12-23T03:39:11.594Z,25.87
2018-12-23T03:41:41.507Z,24.40
2018-12-23T03:44:11.936Z,24.70
2018-12-23T03:46:43.126Z,25.30
2018-12-23T03:49:13.088Z,21.47
2018-12-23T03:51:43.375Z,25.37
2018-12-23T03:54:13.387Z,22.87
2018-12-23T03:56:43.364Z,22.50
2018-12-23T03:59:13.056Z,22.50
2018-12-23T04:01:42.639Z,24.17
2018-12-23T04:04:12.277Z,25.63
2018-12-23T04:06:42.675Z,22.50
2018-12-23T04:09:12.285Z,21.47
2018-12-23T04:11:42.120Z,20.90
2018-12-23T04:14:11.745Z,23.57
2018-12-23T04:16:41.848Z,25.63
2018-12-23T04:19:11.807Z,22.67
2018-12-23T04:21:43.081Z,21.10
2018-12-23T04:24:12.767Z,21.97
2018-12-23T04:26:42.377Z,24.77
2018-12-23T04:29:12.033Z,23.07
2018-12-23T04:31:42.702Z,24.40
2018-12-23T04:34:12.318Z,25.23
2018-12-23T04:36:43.223Z,26.47
2018-12-23T04:39:12.822Z,23.57
2018-12-23T04:41:42.377Z,24.63
2018-12-23T04:44:11.965Z,21.50
2018-12-23T04:46:41.585Z,23.17
2018-12-23T04:49:11.150Z,22.43
2018-12-23T04:51:41.932Z,25.70
2018-12-23T04:54:11.596Z,27.13
2018-12-23T04:56:41.202Z,21.03
2018-12-23T04:59:10.905Z,21.03
2018-12-23T05:01:41.222Z,21.33
2018-12-23T05:04:11.250Z,22.53
2018-12-23T05:06:43.417Z,21.13
2018-12-23T05:09:13.920Z,19.13
2018-12-23T05:11:43.804Z,18.90
2018-12-23T05:14:13.856Z,18.47
2018-12-23T05:16:43.752Z,20.57
2018-12-23T05:19:13.607Z,22.00
2018-12-23T05:21:44.371Z,19.27
2018-12-23T05:24:14.500Z,18.83
2018-12-23T05:26:44.405Z,21.93
2018-12-23T05:29:14.313Z,19.03
2018-12-23T05:31:44.162Z,21.13
2018-12-23T05:34:14.057Z,22.23
2018-12-23T05:36:52.341Z,22.07
2018-12-23T05:39:17.551Z,23.27
2018-12-23T05:41:47.956Z,23.90
2018-12-23T05:44:18.666Z,21.67
2018-12-23T05:46:55.960Z,24.20
2018-12-23T05:49:25.952Z,22.40
2018-12-23T05:51:55.907Z,23.87
2018-12-23T05:54:30.738Z,23.50
2018-12-23T05:57:00.720Z,23.77
2018-12-23T05:59:30.681Z,24.40
2018-12-23T06:02:00.735Z,18.77
2018-12-23T06:04:30.704Z,19.10
2018-12-23T06:07:01.581Z,19.07
2018-12-23T06:09:31.484Z,19.63
2018-12-23T06:12:07.335Z,21.67
2018-12-23T06:14:37.880Z,18.77
2018-12-23T06:17:07.829Z,23.20
2018-12-23T06:19:38.279Z,18.10
2018-12-23T06:22:07.894Z,20.03
2018-12-23T06:24:38.894Z,20.27
2018-12-23T06:27:08.549Z,16.47
2018-12-23T06:29:38.615Z,16.47
2018-12-23T06:32:08.235Z,17.37
2018-12-23T06:34:38.613Z,19.70
2018-12-23T06:37:10.211Z,20.60
2018-12-23T06:39:41.208Z,17.10
2018-12-23T06:42:10.766Z,19.13
2018-12-23T06:44:40.907Z,19.33
2018-12-23T06:47:10.456Z,20.67
2018-12-23T06:49:40.587Z,20.60
2018-12-23T06:52:10.387Z,20.53
2018-12-23T06:54:41.262Z,21.47
2018-12-23T06:57:10.906Z,18.57
2018-12-23T06:59:40.768Z,17.17
2018-12-23T07:02:10.450Z,16.83
2018-12-23T07:04:40.063Z,14.03
2018-12-23T07:07:18.413Z,14.80
2018-12-23T07:09:43.148Z,11.53
2018-12-23T07:12:12.714Z,13.47
2018-12-23T07:14:42.728Z,12.83
2018-12-23T07:17:12.343Z,13.87
2018-12-23T07:19:41.915Z,14.20
2018-12-23T07:22:11.567Z,14.97
2018-12-23T07:24:42.529Z,15.27
2018-12-23T07:27:12.200Z,13.77
2018-12-23T07:29:41.831Z,15.07
2018-12-23T07:32:11.404Z,13.57
2018-12-23T07:34:41.022Z,14.33
2018-12-23T07:37:10.634Z,14.03
2018-12-23T07:39:41.851Z,13.10
2018-12-23T07:42:11.565Z,15.03
2018-12-23T07:44:41.202Z,14.67
2018-12-23T07:47:10.762Z,14.67
2018-12-23T07:49:40.448Z,14.27
2018-12-23T07:52:10.114Z,16.30
2018-12-23T07:54:41.182Z,14.03
2018-12-23T07:57:10.823Z,14.17
2018-12-23T07:59:41.923Z,14.67
2018-12-23T08:02:11.696Z,16.03
2018-12-23T08:04:41.422Z,15.20
2018-12-23T08:07:11.085Z,15.33
2018-12-23T08:09:42.649Z,16.20
2018-12-23T08:12:12.562Z,14.47
2018-12-23T08:14:43.117Z,16.53
2018-12-23T08:17:13.537Z,16.60
2018-12-23T08:19:43.967Z,15.37
2018-12-23T08:22:13.671Z,14.27
2018-12-23T08:24:45.124Z,18.07
2018-12-23T08:27:14.883Z,18.00
2018-12-23T08:29:46.855Z,14.07
2018-12-23T08:32:16.466Z,15.70
2018-12-23T08:34:46.151Z,18.07
2018-12-23T08:37:15.722Z,18.73
2018-12-23T08:39:46.461Z,15.10
2018-12-23T08:42:16.160Z,14.53
2018-12-23T08:44:45.842Z,17.20
2018-12-23T08:47:18.097Z,15.00
2018-12-23T08:49:47.744Z,15.17
2018-12-23T08:52:17.370Z,14.97
2018-12-23T08:54:46.961Z,13.50
2018-12-23T08:57:16.565Z,15.87
2018-12-23T08:59:46.265Z,13.27
2018-12-23T09:02:16.068Z,16.37
2018-12-23T09:04:45.743Z,12.90
2018-12-23T09:10:51.437Z,13.00
2018-12-23T09:13:25.433Z,13.13
2018-12-23T09:16:01.429Z,14.43
2018-12-23T09:18:32.752Z,10.63
2018-12-23T09:21:04.271Z,11.90
2018-12-23T09:23:37.356Z,13.67
2018-12-23T09:26:08.735Z,8.70
2018-12-23T09:28:40.577Z,10.17
2018-12-23T09:31:11.868Z,8.40
2018-12-23T09:33:44.738Z,9.30
2018-12-23T09:36:15.977Z,10.47
2018-12-23T09:38:47.465Z,10.13
2018-12-23T09:41:18.791Z,11.47
2018-12-23T09:43:50.200Z,14.37
2018-12-23T09:46:22.702Z,10.37
2018-12-23T09:48:53.888Z,14.43
2018-12-23T09:51:25.122Z,11.63
2018-12-23T09:53:56.598Z,13.10
2018-12-23T09:56:27.855Z,11.57
2018-12-23T09:58:59.022Z,9.10
2018-12-23T10:01:30.293Z,7.87
2018-12-23T10:04:01.540Z,8.93
2018-12-23T10:06:32.793Z,8.37
2018-12-23T10:09:04.813Z,11.07
2018-12-23T10:11:36.400Z,11.07
2018-12-23T10:14:07.674Z,10.17
2018-12-23T10:16:38.974Z,8.37
2018-12-23T10:19:10.274Z,11.60
2018-12-23T10:21:43.014Z,9.57
2018-12-23T10:24:14.289Z,5.73
2018-12-23T10:26:46.118Z,7.47
2018-12-23T10:29:17.808Z,10.30
2018-12-23T10:31:49.385Z,9.90
2018-12-23T10:34:21.227Z,8.33
2018-12-23T10:36:52.699Z,8.33
2018-12-23T10:39:26.399Z,12.13
2018-12-23T10:41:58.111Z,12.03
2018-12-23T10:44:29.361Z,15.57
2018-12-23T10:47:00.754Z,12.07
2018-12-23T10:49:32.007Z,6.80
2018-12-23T10:52:03.356Z,10.60
2018-12-23T10:54:36.311Z,8.53
2018-12-23T10:57:07.557Z,11.17
2018-12-23T10:59:38.733Z,15.70
2018-12-23T11:02:13.721Z,29.70
2018-12-23T11:04:43.560Z,16.73
2018-12-23T11:07:14.805Z,14.30
2018-12-23T11:09:46.774Z,15.90
2018-12-23T11:12:18.003Z,29.73
2018-12-23T11:14:50.115Z,5.80
2018-12-23T11:17:21.454Z,18.13
2018-12-23T11:19:53.603Z,12.70
2018-12-23T11:22:26.845Z,16.63
2018-12-23T11:24:58.229Z,9.13
2018-12-23T11:27:29.494Z,6.63
2018-12-23T11:30:00.722Z,15.17
2018-12-23T11:32:31.888Z,10.10
2018-12-23T11:35:03.169Z,9.97
2018-12-23T11:37:35.612Z,12.33
2018-12-23T11:40:08.376Z,7.40
2018-12-23T11:42:40.241Z,8.03
2018-12-23T11:45:11.450Z,8.30
2018-12-23T11:47:42.661Z,10.17
2018-12-23T11:50:13.967Z,8.33
2018-12-23T11:52:45.347Z,8.60
2018-12-23T11:55:16.571Z,9.03
2018-12-23T11:57:48.027Z,8.83
2018-12-23T12:00:19.300Z,7.13
2018-12-23T12:02:51.399Z,10.53
2018-12-23T12:05:22.630Z,27.77
2018-12-23T12:07:53.843Z,21.90
2018-12-23T12:10:25.022Z,13.30
2018-12-23T12:12:56.224Z,12.33
2018-12-23T12:15:27.609Z,12.83
2018-12-23T12:17:59.048Z,13.67
2018-12-23T12:20:30.235Z,9.30
2018-12-23T12:23:01.452Z,14.87
2018-12-23T12:25:32.674Z,7.57
2018-12-23T12:28:03.895Z,13.90
2018-12-23T12:30:35.068Z,17.77
2018-12-23T12:33:06.315Z,13.67
2018-12-23T12:35:37.574Z,15.67
2018-12-23T12:38:08.810Z,19.20
2018-12-23T12:40:39.955Z,13.37
2018-12-23T12:43:11.157Z,4.97
2018-12-23T12:45:44.037Z,16.23
2018-12-23T12:48:15.375Z,19.10
2018-12-23T12:50:46.622Z,10.33
2018-12-23T12:53:17.812Z,9.73
2018-12-23T12:55:49.566Z,12.57
2018-12-23T12:58:20.729Z,10.83
2018-12-23T13:00:52.383Z,8.20
2018-12-23T13:03:23.561Z,9.20
2018-12-23T13:05:55.619Z,5.97
2018-12-23T13:08:26.816Z,4.17
2018-12-23T13:10:58.096Z,5.30
2018-12-23T13:13:30.367Z,9.43
2018-12-23T13:16:02.043Z,9.93
2018-12-23T13:18:33.235Z,5.70
2018-12-23T13:21:04.830Z,7.23
2018-12-23T13:23:36.093Z,11.57
2018-12-23T13:26:07.509Z,7.50
2018-12-23T13:28:38.905Z,7.57
2018-12-23T13:31:10.139Z,5.80
2018-12-23T13:33:42.852Z,9.90
2018-12-23T13:36:14.091Z,11.40
2018-12-23T13:38:45.286Z,9.73
2018-12-23T13:41:50.923Z,6.70
2018-12-23T13:45:29.517Z,9.20
2018-12-23T13:49:04.305Z,8.47
2018-12-23T13:52:38.336Z,13.77
2018-12-23T13:56:01.727Z,10.37
2018-12-23T13:59:49.423Z,7.63
2018-12-23T14:03:06.185Z,7.00
2018-12-23T14:07:06.256Z,8.07
2018-12-23T14:10:08.150Z,8.93
2018-12-23T14:12:40.752Z,10.50
2018-12-23T14:15:11.971Z,13.73
2018-12-23T14:17:44.406Z,8.90
2018-12-23T14:20:15.589Z,3.23
2018-12-23T14:22:46.819Z,3.13
2018-12-23T14:25:18.117Z,6.37
2018-12-23T14:27:49.355Z,5.60
2018-12-23T14:30:20.533Z,7.30
2018-12-23T14:32:52.026Z,5.00
2018-12-23T14:35:23.267Z,3.67
2018-12-23T14:37:54.922Z,5.23
2018-12-23T14:40:26.193Z,4.17
2018-12-23T14:42:58.525Z,4.47
2018-12-23T14:45:29.791Z,5.67
2018-12-23T14:48:01.137Z,7.67
2018-12-23T14:50:32.446Z,7.17
2018-12-23T14:53:03.644Z,7.10
2018-12-23T14:55:34.945Z,7.53
2018-12-23T14:58:06.183Z,3.37
2018-12-23T15:00:38.323Z,5.67
2018-12-23T15:03:09.632Z,5.30
2018-12-23T15:05:40.883Z,9.83
2018-12-23T15:08:13.774Z,7.93
2018-12-23T15:10:45.144Z,6.53
2018-12-23T15:13:17.977Z,7.07
2018-12-23T15:15:49.323Z,5.60
2018-12-23T15:18:20.529Z,6.27
2018-12-23T15:20:52.258Z,6.77
2018-12-23T15:23:23.522Z,4.13
2018-12-23T15:25:54.755Z,5.87
2018-12-23T15:28:25.936Z,6.20
2018-12-23T15:30:57.185Z,6.17
2018-12-23T15:33:28.922Z,5.83
2018-12-23T15:36:00.779Z,7.23
2018-12-23T15:38:32.015Z,6.37
2018-12-23T15:41:03.908Z,8.50
2018-12-23T15:43:35.236Z,5.37
2018-12-23T15:46:07.315Z,5.43
2018-12-23T15:48:39.308Z,5.13
2018-12-23T15:51:29.587Z,9.50
2018-12-23T15:54:00.888Z,10.17
2018-12-23T15:56:32.117Z,8.50
2018-12-23T15:59:03.585Z,10.77
2018-12-23T16:01:34.814Z,15.07
2018-12-23T16:04:06.921Z,13.80
2018-12-23T16:06:38.988Z,10.90
2018-12-23T16:09:11.062Z,17.93
2018-12-23T16:11:42.333Z,13.30
2018-12-23T16:14:13.604Z,18.47
2018-12-23T16:16:44.894Z,12.07
2018-12-23T16:19:16.166Z,15.50
2018-12-23T16:21:47.443Z,13.43
2018-12-23T16:24:18.695Z,13.70
2018-12-23T16:26:50.151Z,13.30
2018-12-23T16:29:21.538Z,17.53
2018-12-23T16:31:53.524Z,13.30
2018-12-23T16:34:24.761Z,12.30
2018-12-23T16:36:56.546Z,13.23
2018-12-23T16:39:27.735Z,17.60
2018-12-23T16:42:00.239Z,12.23
2018-12-23T16:44:32.758Z,15.93
2018-12-23T16:47:04.157Z,11.70
2018-12-23T16:49:35.900Z,10.77
2018-12-23T16:52:07.785Z,15.37
2018-12-23T16:54:39.370Z,13.27
2018-12-23T16:57:10.991Z,13.40
2018-12-23T16:59:42.348Z,8.63
2018-12-23T17:02:13.514Z,11.97
2018-12-23T17:04:45.253Z,8.93
2018-12-23T17:07:16.699Z,9.13
2018-12-23T17:09:48.974Z,7.87
2018-12-23T17:12:27.002Z,8.70
2018-12-23T17:15:00.931Z,7.60
2018-12-23T17:17:36.225Z,8.63
2018-12-23T17:20:12.337Z,6.47
2018-12-23T17:22:43.712Z,9.47
2018-12-23T17:25:15.278Z,7.77
2018-12-23T17:27:47.366Z,6.40
2018-12-23T17:30:19.980Z,8.40
2018-12-23T17:32:51.493Z,8.17
2018-12-23T17:35:22.858Z,8.00
2018-12-23T17:37:54.509Z,7.80
2018-12-23T17:40:26.667Z,7.30
2018-12-23T17:42:58.893Z,8.20
2018-12-23T17:45:31.010Z,8.57
2018-12-23T17:48:03.538Z,12.40
2018-12-23T17:50:35.923Z,10.30
2018-12-23T17:53:09.717Z,9.10
2018-12-23T17:55:41.078Z,10.93
2018-12-23T17:58:13.232Z,7.70
2018-12-23T18:00:44.851Z,7.37
2018-12-23T18:03:16.321Z,10.13
2018-12-23T18:05:48.719Z,9.03
2018-12-23T18:08:20.122Z,5.47
2018-12-23T18:10:51.359Z,10.60
2018-12-23T18:13:23.632Z,8.17
2018-12-23T18:16:07.241Z,9.00
2018-12-23T18:18:39.601Z,6.53
2018-12-23T18:21:11.887Z,11.07
2018-12-23T18:23:43.113Z,7.30
2018-12-23T18:26:15.666Z,8.30
2018-12-23T18:28:58.422Z,7.87
2018-12-23T18:31:33.966Z,10.47
2018-12-23T18:34:13.967Z,12.70
2018-12-23T18:36:47.039Z,8.60
2018-12-23T18:39:20.437Z,8.37
2018-12-23T18:41:52.212Z,14.90
2018-12-23T18:44:23.496Z,13.20
2018-12-23T18:46:54.766Z,9.60
2018-12-23T18:49:26.143Z,7.93
2018-12-23T18:51:57.553Z,14.53
2018-12-23T18:54:28.797Z,15.23
2018-12-23T18:57:08.135Z,12.73
2018-12-23T18:59:46.104Z,8.53
2018-12-23T19:02:32.570Z,10.77
2018-12-23T19:05:03.958Z,12.03
2018-12-23T19:07:35.492Z,14.00
2018-12-23T19:11:15.358Z,15.77
2018-12-23T19:14:48.161Z,14.33
2018-12-23T19:18:30.291Z,12.03
2018-12-23T19:21:58.848Z,15.30
2018-12-23T19:25:11.377Z,17.20
2018-12-23T19:28:47.440Z,17.93
2018-12-23T19:32:00.698Z,14.93
2018-12-23T19:35:31.204Z,17.37
2018-12-23T19:39:07.744Z,16.07
2018-12-23T19:42:55.421Z,13.73
2018-12-23T19:46:26.429Z,21.13
2018-12-23T19:49:50.927Z,18.23
2018-12-23T19:53:13.103Z,21.43
2018-12-23T19:56:48.895Z,21.43
2018-12-23T20:00:25.167Z,26.37
2018-12-23T20:03:54.448Z,20.30
2018-12-23T20:07:45.814Z,20.53
2018-12-23T20:15:02.476Z,25.13
2018-12-23T20:18:29.454Z,27.97
2018-12-23T20:22:05.542Z,97.03
2018-12-23T20:24:59.022Z,71.57
2018-12-23T20:28:28.089Z,133.57
2018-12-23T20:32:01.024Z,49.53
2018-12-23T20:35:53.621Z,60.47
2018-12-23T20:39:17.363Z,35.83
2018-12-23T20:42:47.345Z,40.53
2018-12-23T20:46:26.004Z,26.50
2018-12-23T20:49:51.456Z,49.77
2018-12-23T20:53:21.681Z,42.40
2018-12-23T20:56:34.147Z,34.80
2018-12-23T20:59:47.430Z,20.87
2018-12-23T21:03:49.967Z,15.90
2018-12-23T21:07:39.933Z,17.03
2018-12-23T21:11:21.928Z,11.97
2018-12-23T21:14:40.488Z,12.50
2018-12-23T21:17:59.709Z,16.33
2018-12-23T21:21:26.946Z,11.50
2018-12-23T21:25:01.747Z,12.53
2018-12-23T21:28:26.683Z,11.93
2018-12-23T21:31:57.808Z,12.70
2018-12-23T21:36:03.838Z,12.93
2018-12-23T21:39:40.672Z,17.03
2018-12-23T21:42:42.611Z,13.60
2018-12-23T21:45:58.554Z,13.93
2018-12-23T21:49:22.987Z,14.70
2018-12-23T21:52:48.980Z,12.17
2018-12-23T21:56:17.301Z,10.40
2018-12-23T21:59:45.567Z,10.17
2018-12-23T22:03:32.243Z,11.27
2018-12-23T22:06:48.702Z,9.83
2018-12-23T22:10:08.998Z,7.07
2018-12-23T22:13:28.969Z,11.73
2018-12-23T22:16:00.183Z,9.03
2018-12-23T22:18:31.399Z,10.50
2018-12-23T22:21:02.942Z,11.40
2018-12-23T22:23:34.310Z,9.23
2018-12-23T22:26:06.649Z,12.47
2018-12-23T22:28:37.915Z,7.63
2018-12-23T22:31:09.924Z,11.80
2018-12-23T22:33:42.762Z,5.70
2018-12-23T22:36:14.125Z,6.13
2018-12-23T22:38:45.747Z,7.57
2018-12-23T22:41:22.330Z,7.93
2018-12-23T22:43:53.658Z,5.23
2018-12-23T22:46:25.383Z,6.80
2018-12-23T22:48:56.695Z,4.00
2018-12-23T22:51:28.286Z,3.87
2018-12-23T22:53:59.828Z,3.37
2018-12-23T22:56:31.307Z,5.67
2018-12-23T22:59:02.510Z,3.77
2018-12-23T23:01:41.142Z,9.30
2018-12-23T23:04:27.149Z,4.97
2018-12-23T23:06:58.573Z,5.40
2018-12-23T23:09:30.016Z,6.13
2018-12-23T23:12:01.558Z,4.27
2018-12-23T23:14:32.944Z,5.40
2018-12-23T23:17:04.298Z,4.30
2018-12-23T23:19:35.654Z,3.90
2018-12-23T23:22:06.841Z,2.67
2018-12-23T23:24:39.055Z,6.23
2018-12-23T23:27:10.341Z,5.93
2018-12-23T23:29:41.650Z,4.10
2018-12-23T23:32:12.881Z,5.77
2018-12-23T23:34:44.227Z,3.40
2018-12-23T23:37:15.656Z,4.13
2018-12-23T23:39:46.882Z,3.93
2018-12-23T23:42:18.839Z,5.20
2018-12-23T23:44:50.102Z,3.53
2018-12-23T23:47:21.289Z,3.57
2018-12-23T23:49:52.491Z,4.10
2018-12-23T23:52:23.703Z,3.97
2018-12-23T23:54:54.911Z,4.30
2018-12-23T23:57:26.282Z,6.10
2018-12-23T23:59:58.027Z,7.53
